createdAt,value
2019-03-26T00:00:42.822Z,48.30
2019-03-26T00:03:12.505Z,47.60
2019-03-26T00:05:42.190Z,47.80
2019-03-26T00:08:11.890Z,48.90
2019-03-26T00:10:41.830Z,49.50
2019-03-26T00:13:11.470Z,49.70
2019-03-26T00:15:40.918Z,49.60
2019-03-26T00:18:10.750Z,49.80
2019-03-26T00:20:40.505Z,50.70
2019-03-26T00:23:10.153Z,50.20
2019-03-26T00:25:40.049Z,50.90
2019-03-26T00:28:10.186Z,51.70
2019-03-26T00:30:40.213Z,50.10
2019-03-26T00:33:09.667Z,51.20
2019-03-26T00:35:39.271Z,50.90
2019-03-26T00:38:10.023Z,50.90
2019-03-26T00:40:40.265Z,51.00
2019-03-26T00:43:10.071Z,51.90
2019-03-26T00:45:39.782Z,51.60
2019-03-26T00:48:09.462Z,52.50
2019-03-26T00:50:38.974Z,53.90
2019-03-26T00:53:08.483Z,55.10
2019-03-26T00:55:38.383Z,55.20
2019-03-26T00:58:07.909Z,54.20
2019-03-26T01:00:39.743Z,54.80
2019-03-26T01:03:09.937Z,55.60
2019-03-26T01:05:41.340Z,54.90
2019-03-26T01:08:11.258Z,54.70
2019-03-26T01:10:40.688Z,55.80
2019-03-26T01:13:11.069Z,55.30
2019-03-26T01:15:40.809Z,54.10
2019-03-26T01:18:10.437Z,54.00
2019-03-26T01:20:40.550Z,54.00
2019-03-26T01:23:10.101Z,55.20
2019-03-26T01:25:41.022Z,54.80
2019-03-26T01:28:10.539Z,56.60
2019-03-26T01:30:40.037Z,54.50
2019-03-26T01:33:09.975Z,54.30
2019-03-26T01:35:39.478Z,55.00
2019-03-26T01:38:08.969Z,55.80
2019-03-26T01:40:38.722Z,53.90
2019-03-26T01:43:08.367Z,54.30
2019-03-26T01:45:38.095Z,55.00
2019-03-26T01:48:08.630Z,54.60
2019-03-26T01:50:38.333Z,54.90
2019-03-26T01:53:07.829Z,56.80
2019-03-26T01:55:37.556Z,55.60
2019-03-26T01:58:07.007Z,56.10
2019-03-26T02:00:36.817Z,53.90
2019-03-26T02:03:06.663Z,55.80
2019-03-26T02:05:37.390Z,55.20
2019-03-26T02:08:07.102Z,54.60
2019-03-26T02:10:36.676Z,55.40
2019-03-26T02:13:06.314Z,55.20
2019-03-26T02:15:36.921Z,54.10
2019-03-26T02:18:07.033Z,54.30
2019-03-26T02:20:36.751Z,54.00
2019-03-26T02:23:06.444Z,54.50
2019-03-26T02:25:36.083Z,56.10
2019-03-26T02:28:05.615Z,56.90
2019-03-26T02:30:36.308Z,57.10
2019-03-26T02:33:06.054Z,56.70
2019-03-26T02:35:35.738Z,58.50
2019-03-26T02:38:05.498Z,57.20
2019-03-26T02:40:35.129Z,54.30
2019-03-26T02:43:04.721Z,53.60
2019-03-26T02:45:34.707Z,54.00
2019-03-26T02:48:05.041Z,53.60
2019-03-26T02:50:34.428Z,55.10
2019-03-26T02:53:03.818Z,55.40
2019-03-26T02:55:34.025Z,54.80
2019-03-26T02:58:03.930Z,54.30
2019-03-26T03:00:34.023Z,56.50
2019-03-26T03:03:03.820Z,57.90
2019-03-26T03:05:35.478Z,53.80
2019-03-26T03:08:04.878Z,55.00
2019-03-26T03:10:34.504Z,54.60
2019-03-26T03:13:04.205Z,55.00
2019-03-26T03:15:33.725Z,56.20
2019-03-26T03:18:03.519Z,54.90
2019-03-26T03:20:33.366Z,54.60
2019-03-26T03:23:03.036Z,54.90
2019-03-26T03:25:32.766Z,57.70
2019-03-26T03:28:02.506Z,59.30
2019-03-26T03:30:32.163Z,57.00
2019-03-26T03:33:01.549Z,58.10
2019-03-26T03:35:31.134Z,58.60
2019-03-26T03:38:00.740Z,58.40
2019-03-26T03:40:30.453Z,59.30
2019-03-26T03:43:00.308Z,59.30
2019-03-26T03:45:30.346Z,60.30
2019-03-26T03:48:00.705Z,61.30
2019-03-26T03:50:31.595Z,61.50
2019-03-26T03:53:01.971Z,62.10
2019-03-26T03:55:32.459Z,61.70
2019-03-26T03:58:02.639Z,62.50
2019-03-26T04:00:38.022Z,63.00
2019-03-26T04:03:08.962Z,63.20
2019-03-26T04:05:38.450Z,62.40
2019-03-26T04:08:07.960Z,62.40
2019-03-26T04:10:37.474Z,62.80
2019-03-26T04:13:07.049Z,62.40
2019-03-26T04:15:36.805Z,63.30
2019-03-26T04:18:06.497Z,64.20
2019-03-26T04:20:35.952Z,64.80
2019-03-26T04:23:05.790Z,64.10
2019-03-26T04:25:35.349Z,64.00
2019-03-26T04:28:04.796Z,64.10
2019-03-26T04:30:34.513Z,64.10
2019-03-26T04:33:03.937Z,65.60
2019-03-26T04:35:33.382Z,64.90
2019-03-26T04:38:02.823Z,66.40
2019-03-26T04:40:32.603Z,66.70
2019-03-26T04:43:02.814Z,65.80
2019-03-26T04:45:32.248Z,65.70
2019-03-26T04:48:01.893Z,64.10
2019-03-26T04:50:31.618Z,64.50
2019-03-26T04:53:01.357Z,64.90
2019-03-26T04:55:31.701Z,64.90
2019-03-26T04:58:01.322Z,64.90
2019-03-26T05:00:30.872Z,65.20
2019-03-26T05:03:00.594Z,65.10
2019-03-26T05:05:30.298Z,65.60
2019-03-26T05:07:59.982Z,66.30
2019-03-26T05:10:29.446Z,67.10
2019-03-26T05:12:58.979Z,67.80
2019-03-26T05:15:28.410Z,68.20
2019-03-26T05:17:58.052Z,68.20
2019-03-26T05:20:27.473Z,67.80
2019-03-26T05:22:57.013Z,68.00
2019-03-26T05:25:26.451Z,67.90
2019-03-26T05:27:56.001Z,67.40
2019-03-26T05:30:25.696Z,66.10
2019-03-26T05:32:55.231Z,66.40
2019-03-26T05:35:24.971Z,65.60
2019-03-26T05:37:54.615Z,64.40
2019-03-26T05:40:24.355Z,63.80
2019-03-26T05:42:54.680Z,64.00
2019-03-26T05:45:24.397Z,65.80
2019-03-26T05:47:54.326Z,66.30
2019-03-26T05:50:25.022Z,66.10
2019-03-26T05:52:54.980Z,66.00
2019-03-26T05:55:24.642Z,66.50
2019-03-26T05:57:54.192Z,66.20
2019-03-26T06:00:25.295Z,67.00
2019-03-26T06:02:55.022Z,65.90
2019-03-26T06:05:24.686Z,65.60
2019-03-26T06:07:54.414Z,66.40
2019-03-26T06:10:23.882Z,66.90
2019-03-26T06:12:54.655Z,67.70
2019-03-26T06:15:24.387Z,68.40
2019-03-26T06:17:53.769Z,68.10
2019-03-26T06:20:23.182Z,68.70
2019-03-26T06:22:52.635Z,68.10
2019-03-26T06:25:22.363Z,65.30
2019-03-26T06:27:51.818Z,66.00
2019-03-26T06:30:21.283Z,66.10
2019-03-26T06:32:50.907Z,65.60
2019-03-26T06:35:20.548Z,65.40
2019-03-26T06:37:50.693Z,63.80
2019-03-26T06:40:20.496Z,64.60
2019-03-26T06:42:50.169Z,64.60
2019-03-26T06:45:21.060Z,64.40
2019-03-26T06:47:50.520Z,63.80
2019-03-26T06:50:21.082Z,65.10
2019-03-26T06:52:50.920Z,66.40
2019-03-26T06:55:20.752Z,66.10
2019-03-26T06:57:50.483Z,66.50
2019-03-26T07:00:30.947Z,66.10
2019-03-26T07:03:01.808Z,66.00
2019-03-26T07:05:31.382Z,65.00
2019-03-26T07:08:00.890Z,64.50
2019-03-26T07:10:30.748Z,64.50
2019-03-26T07:13:00.848Z,63.90
2019-03-26T07:15:30.450Z,62.10
2019-03-26T07:18:00.390Z,61.90
2019-03-26T07:20:30.193Z,62.90
2019-03-26T07:22:59.559Z,62.30
2019-03-26T07:25:29.016Z,63.60
2019-03-26T07:27:58.391Z,61.50
2019-03-26T07:30:37.706Z,61.10
2019-03-26T07:33:08.004Z,62.60
2019-03-26T07:35:37.988Z,60.80
2019-03-26T07:38:08.216Z,61.60
2019-03-26T07:40:37.936Z,61.20
2019-03-26T07:43:07.724Z,57.20
2019-03-26T07:45:37.531Z,56.70
2019-03-26T07:48:07.890Z,57.80
2019-03-26T07:50:38.179Z,55.60
2019-03-26T07:53:08.176Z,56.80
2019-03-26T07:55:38.613Z,55.90
2019-03-26T07:58:08.618Z,56.80
2019-03-26T08:00:39.038Z,57.00
2019-03-26T08:03:08.597Z,56.70
2019-03-26T08:05:38.046Z,57.70
2019-03-26T08:08:08.661Z,58.60
2019-03-26T08:10:38.185Z,55.20
2019-03-26T08:13:08.153Z,54.50
2019-03-26T08:15:37.872Z,52.90
2019-03-26T08:18:07.506Z,55.50
2019-03-26T08:20:36.983Z,51.60
2019-03-26T08:23:06.692Z,51.00
2019-03-26T08:25:36.249Z,52.60
2019-03-26T08:28:06.002Z,48.70
2019-03-26T08:30:35.640Z,48.40
2019-03-26T08:33:05.451Z,50.40
2019-03-26T08:35:35.152Z,50.70
2019-03-26T08:38:12.276Z,47.80
2019-03-26T08:40:35.765Z,50.70
2019-03-26T08:43:05.206Z,50.90
2019-03-26T08:45:34.569Z,49.50
2019-03-26T08:48:04.756Z,48.90
2019-03-26T08:50:34.287Z,48.20
2019-03-26T08:53:04.011Z,48.50
2019-03-26T08:55:34.170Z,49.90
2019-03-26T08:58:03.869Z,48.20
2019-03-26T09:00:33.499Z,50.20
2019-03-26T09:03:03.254Z,47.30
2019-03-26T09:05:33.011Z,48.90
2019-03-26T09:08:03.188Z,49.50
2019-03-26T09:10:33.040Z,47.00
2019-03-26T09:13:03.088Z,45.70
2019-03-26T09:15:33.015Z,47.10
2019-03-26T09:18:02.772Z,52.00
2019-03-26T09:20:32.197Z,44.40
2019-03-26T09:23:01.630Z,46.60
2019-03-26T09:25:31.280Z,45.00
2019-03-26T09:28:01.107Z,46.30
2019-03-26T09:30:30.677Z,44.10
2019-03-26T09:33:00.427Z,41.20
2019-03-26T09:35:29.857Z,45.30
2019-03-26T09:37:59.235Z,39.70
2019-03-26T09:40:28.667Z,45.50
2019-03-26T09:42:58.132Z,46.60
2019-03-26T09:45:27.861Z,45.90
2019-03-26T09:47:57.487Z,48.90
2019-03-26T09:50:32.370Z,47.30
2019-03-26T09:53:02.232Z,47.90
2019-03-26T09:55:31.947Z,48.70
2019-03-26T09:58:02.239Z,49.50
2019-03-26T10:00:31.777Z,51.60
2019-03-26T10:03:01.265Z,50.10
2019-03-26T10:05:30.701Z,46.10
2019-03-26T10:08:00.359Z,48.40
2019-03-26T10:10:30.015Z,45.60
2019-03-26T10:12:59.666Z,44.10
2019-03-26T10:15:29.394Z,44.60
2019-03-26T10:17:59.242Z,38.90
2019-03-26T10:20:29.028Z,39.20
2019-03-26T10:22:58.963Z,40.20
2019-03-26T10:25:28.573Z,39.60
2019-03-26T10:27:58.490Z,45.60
2019-03-26T10:30:34.018Z,44.10
2019-03-26T10:33:04.425Z,42.30
2019-03-26T10:35:34.265Z,45.70
2019-03-26T10:38:04.821Z,41.00
2019-03-26T10:40:37.366Z,39.70
2019-03-26T10:43:06.940Z,42.70
2019-03-26T10:45:37.244Z,42.20
2019-03-26T10:58:49.063Z,40.90
2019-03-26T11:01:19.126Z,39.20
2019-03-26T11:03:48.656Z,37.00
2019-03-26T11:06:18.602Z,37.70
2019-03-26T11:08:48.245Z,39.40
2019-03-26T11:11:17.784Z,40.70
2019-03-26T11:13:47.433Z,40.40
2019-03-26T11:16:16.969Z,42.50
2019-03-26T11:18:46.708Z,44.20
2019-03-26T11:21:16.141Z,45.30
2019-03-26T11:23:45.640Z,45.20
2019-03-26T11:26:15.394Z,46.30
2019-03-26T11:28:44.901Z,47.70
2019-03-26T11:31:14.858Z,48.70
2019-03-26T11:33:44.492Z,47.20
2019-03-26T11:36:13.995Z,46.50
2019-03-26T11:38:44.644Z,45.10
2019-03-26T11:41:14.086Z,44.00
2019-03-26T11:43:43.791Z,44.30
2019-03-26T11:46:13.701Z,44.30
2019-03-26T11:48:43.340Z,44.40
2019-03-26T11:51:13.762Z,43.20
2019-03-26T11:53:43.475Z,41.90
2019-03-26T11:56:14.057Z,40.70
2019-03-26T11:58:43.691Z,40.20
2019-03-26T12:01:13.594Z,45.70
2019-03-26T12:03:43.647Z,35.40
2019-03-26T12:06:13.175Z,36.20
2019-03-26T12:08:42.643Z,39.40
2019-03-26T12:11:12.385Z,33.80
2019-03-26T12:13:41.815Z,35.20
2019-03-26T12:16:11.261Z,34.70
2019-03-26T12:18:40.636Z,33.30
2019-03-26T12:21:10.024Z,32.10
2019-03-26T12:23:39.660Z,33.60
2019-03-26T12:26:09.119Z,31.50
2019-03-26T12:28:38.605Z,32.80
2019-03-26T12:31:08.186Z,35.40
2019-03-26T12:33:37.725Z,28.90
2019-03-26T12:36:07.083Z,27.10
2019-03-26T12:38:36.726Z,25.70
2019-03-26T12:41:06.735Z,28.50
2019-03-26T12:43:36.369Z,27.60
2019-03-26T12:46:06.011Z,29.10
2019-03-26T12:48:36.355Z,29.80
2019-03-26T12:51:05.815Z,26.90
2019-03-26T12:53:35.255Z,28.40
2019-03-26T12:56:05.699Z,30.90
2019-03-26T12:58:36.672Z,31.80
2019-03-26T13:01:06.699Z,31.30
2019-03-26T13:03:36.666Z,31.80
2019-03-26T13:06:06.693Z,31.50
2019-03-26T13:08:36.410Z,27.40
2019-03-26T13:11:06.093Z,26.70
2019-03-26T13:13:35.735Z,23.20
2019-03-26T13:16:05.445Z,25.20
2019-03-26T13:18:34.923Z,28.40
2019-03-26T13:21:04.940Z,26.00
2019-03-26T13:23:34.323Z,25.70
2019-03-26T13:26:03.873Z,23.70
2019-03-26T13:28:33.276Z,25.30
2019-03-26T13:31:03.085Z,27.50
2019-03-26T13:33:32.595Z,24.50
2019-03-26T13:36:02.399Z,23.20
2019-03-26T13:38:31.950Z,26.00
2019-03-26T13:41:01.427Z,26.80
2019-03-26T13:43:31.149Z,26.00
2019-03-26T13:46:00.955Z,27.60
2019-03-26T13:48:30.620Z,29.10
2019-03-26T13:51:00.330Z,32.20
2019-03-26T13:53:29.871Z,33.00
2019-03-26T13:55:59.735Z,37.50
2019-03-26T13:58:29.439Z,31.00
2019-03-26T14:00:59.578Z,31.80
2019-03-26T14:03:31.051Z,33.00
2019-03-26T14:06:00.601Z,34.60
2019-03-26T14:08:30.330Z,33.20
2019-03-26T14:10:59.825Z,31.20
2019-03-26T14:13:29.270Z,29.90
2019-03-26T14:15:59.610Z,26.90
2019-03-26T14:18:29.055Z,26.10
2019-03-26T14:20:58.895Z,24.80
2019-03-26T14:23:28.785Z,29.00
2019-03-26T14:25:58.566Z,31.90
2019-03-26T14:28:28.426Z,29.40
2019-03-26T14:30:58.082Z,31.80
2019-03-26T14:33:27.840Z,31.30
2019-03-26T14:35:57.314Z,35.20
2019-03-26T14:38:26.752Z,32.80
2019-03-26T14:40:56.535Z,36.70
2019-03-26T14:43:29.336Z,35.30
2019-03-26T14:45:59.215Z,32.00
2019-03-26T14:48:28.960Z,29.80
2019-03-26T14:50:59.031Z,30.90
2019-03-26T14:53:28.759Z,30.70
2019-03-26T14:55:59.725Z,36.50
2019-03-26T14:58:29.378Z,35.20
2019-03-26T15:00:59.964Z,30.30
2019-03-26T15:03:30.242Z,32.20
2019-03-26T15:06:00.003Z,29.90
2019-03-26T15:08:29.445Z,29.70
2019-03-26T15:11:08.084Z,29.30
2019-03-26T15:13:30.315Z,27.70
2019-03-26T15:15:59.833Z,29.70
2019-03-26T15:18:29.758Z,25.40
2019-03-26T15:20:59.626Z,23.40
2019-03-26T15:23:29.184Z,24.10
2019-03-26T15:25:58.882Z,23.30
2019-03-26T15:28:28.408Z,28.40
2019-03-26T15:30:57.844Z,30.00
2019-03-26T15:33:27.774Z,30.90
2019-03-26T15:35:57.149Z,32.60
2019-03-26T15:38:26.802Z,27.80
2019-03-26T15:40:56.643Z,27.20
2019-03-26T15:43:26.104Z,28.90
2019-03-26T15:45:55.930Z,28.60
2019-03-26T15:48:25.550Z,31.70
2019-03-26T15:50:55.090Z,28.70
2019-03-26T15:53:24.836Z,28.20
2019-03-26T15:55:54.517Z,29.90
2019-03-26T15:58:24.802Z,29.50
2019-03-26T16:00:54.331Z,31.20
2019-03-26T16:03:24.074Z,30.70
2019-03-26T16:05:53.791Z,27.50
2019-03-26T16:08:23.886Z,29.80
2019-03-26T16:10:53.603Z,30.60
2019-03-26T16:13:23.308Z,32.00
2019-03-26T16:15:53.014Z,31.20
2019-03-26T16:18:22.714Z,35.70
2019-03-26T16:20:52.476Z,33.70
2019-03-26T16:23:22.145Z,34.60
2019-03-26T16:25:52.877Z,32.40
2019-03-26T16:28:22.606Z,34.50
2019-03-26T16:30:52.451Z,35.30
2019-03-26T16:33:22.414Z,37.00
2019-03-26T16:35:52.161Z,37.70
2019-03-26T16:38:21.795Z,38.10
2019-03-26T16:40:51.349Z,40.10
2019-03-26T16:43:21.082Z,37.70
2019-03-26T16:45:50.698Z,38.50
2019-03-26T16:48:20.640Z,39.20
2019-03-26T16:50:50.418Z,38.90
2019-03-26T16:53:21.765Z,39.30
2019-03-26T16:55:52.267Z,38.20
2019-03-26T16:58:21.920Z,38.10
2019-03-26T17:00:51.833Z,39.60
2019-03-26T17:03:31.252Z,40.70
2019-03-26T17:05:53.198Z,37.80
2019-03-26T17:08:22.921Z,38.50
2019-03-26T17:10:52.418Z,38.90
2019-03-26T17:13:22.249Z,39.10
2019-03-26T17:15:51.949Z,39.70
2019-03-26T17:18:21.602Z,39.60
2019-03-26T17:20:51.350Z,40.70
2019-03-26T17:23:20.912Z,44.50
2019-03-26T17:25:50.411Z,45.30
2019-03-26T17:28:21.383Z,44.90
2019-03-26T17:30:50.869Z,46.60
2019-03-26T17:33:20.706Z,46.50
2019-03-26T17:35:50.428Z,48.00
2019-03-26T17:38:19.941Z,50.20
2019-03-26T17:40:49.388Z,51.40
2019-03-26T17:43:18.850Z,52.10
2019-03-26T17:45:48.283Z,52.30
2019-03-26T17:48:17.935Z,53.30
2019-03-26T17:50:48.031Z,54.00
2019-03-26T17:53:17.789Z,54.60
2019-03-26T17:55:47.526Z,56.10
2019-03-26T17:58:17.169Z,56.50
2019-03-26T18:00:47.399Z,57.00
2019-03-26T18:03:26.361Z,57.00
2019-03-26T18:05:48.609Z,58.40
2019-03-26T18:08:18.070Z,58.00
2019-03-26T18:10:47.840Z,57.90
2019-03-26T18:13:17.765Z,58.50
2019-03-26T18:15:48.992Z,58.40
2019-03-26T18:18:18.798Z,58.70
2019-03-26T18:20:48.444Z,58.90
2019-03-26T18:23:17.979Z,59.00
2019-03-26T18:25:47.455Z,58.60
2019-03-26T18:28:17.188Z,58.50
2019-03-26T18:30:46.914Z,58.00
2019-03-26T18:33:16.654Z,57.50
2019-03-26T18:35:46.282Z,56.90
2019-03-26T18:38:16.053Z,56.90
2019-03-26T18:40:47.139Z,57.50
2019-03-26T18:43:17.191Z,58.40
2019-03-26T18:45:46.746Z,58.40
2019-03-26T18:48:16.210Z,58.80
2019-03-26T18:50:46.036Z,60.40
2019-03-26T18:53:15.683Z,59.10
2019-03-26T18:55:45.391Z,57.70
2019-03-26T18:58:14.850Z,58.80
2019-03-26T19:00:44.586Z,59.50
2019-03-26T19:03:14.133Z,59.00
2019-03-26T19:05:43.934Z,59.10
2019-03-26T19:08:13.675Z,60.20
2019-03-26T19:10:43.423Z,60.30
2019-03-26T19:13:19.157Z,61.50
2019-03-26T19:15:44.323Z,62.00
2019-03-26T19:18:13.761Z,62.40
2019-03-26T19:20:43.293Z,62.60
2019-03-26T19:23:12.728Z,63.10
2019-03-26T19:25:42.446Z,63.60
2019-03-26T19:28:11.979Z,64.10
2019-03-26T19:30:41.571Z,64.90
2019-03-26T19:33:10.935Z,64.60
2019-03-26T19:35:40.491Z,64.30
2019-03-26T19:38:10.303Z,64.90
2019-03-26T19:40:40.148Z,64.70
2019-03-26T19:43:11.517Z,65.40
2019-03-26T19:45:41.211Z,65.70
2019-03-26T19:48:11.069Z,66.10
2019-03-26T19:50:40.824Z,65.40
2019-03-26T19:53:10.708Z,65.50
2019-03-26T19:55:40.838Z,66.10
2019-03-26T19:58:11.968Z,66.70
2019-03-26T20:00:42.069Z,66.90
2019-03-26T20:03:11.810Z,66.80
2019-03-26T20:05:41.714Z,66.50
2019-03-26T20:08:11.151Z,65.40
2019-03-26T20:10:40.694Z,65.20
2019-03-26T20:13:23.261Z,65.40
2019-03-26T20:15:41.953Z,65.70
2019-03-26T20:18:11.762Z,66.00
2019-03-26T20:20:41.607Z,65.20
2019-03-26T20:23:11.292Z,65.30
2019-03-26T20:25:40.755Z,65.40
2019-03-26T20:28:10.188Z,65.50
2019-03-26T20:30:39.851Z,65.80
2019-03-26T20:33:09.424Z,65.50
2019-03-26T20:35:38.873Z,65.80
2019-03-26T20:38:08.537Z,66.10
2019-03-26T20:40:38.252Z,66.20
2019-03-26T20:43:07.881Z,65.50
2019-03-26T20:45:37.367Z,65.70
2019-03-26T20:48:07.206Z,65.60
2019-03-26T20:50:36.671Z,66.40
2019-03-26T20:53:06.154Z,66.50
2019-03-26T20:55:36.445Z,65.50
2019-03-26T20:58:06.321Z,65.30
2019-03-26T21:00:37.709Z,65.20
2019-03-26T21:03:07.430Z,65.80
2019-03-26T21:05:37.858Z,65.80
2019-03-26T21:08:07.573Z,65.80
2019-03-26T21:10:37.095Z,65.30
2019-03-26T21:13:06.967Z,65.70
2019-03-26T21:15:36.422Z,66.30
2019-03-26T21:18:06.081Z,67.00
2019-03-26T21:20:35.647Z,66.40
2019-03-26T21:23:05.040Z,66.40
2019-03-26T21:25:34.792Z,66.30
2019-03-26T21:28:04.376Z,65.70
2019-03-26T21:30:33.918Z,65.60
2019-03-26T21:33:04.416Z,66.20
2019-03-26T21:35:34.136Z,67.00
2019-03-26T21:38:06.621Z,67.10
2019-03-26T21:40:36.354Z,66.10
2019-03-26T21:43:06.050Z,66.00
2019-03-26T21:45:39.810Z,66.30
2019-03-26T21:48:10.682Z,66.00
2019-03-26T21:50:40.334Z,66.70
2019-03-26T21:53:10.911Z,67.20
2019-03-26T21:55:40.742Z,66.30
2019-03-26T21:58:10.176Z,66.70
2019-03-26T22:00:39.827Z,67.60
2019-03-26T22:03:09.663Z,67.90
2019-03-26T22:05:39.367Z,66.70
2019-03-26T22:08:09.074Z,66.00
2019-03-26T22:10:38.787Z,65.70
2019-03-26T22:13:08.354Z,65.80
2019-03-26T22:15:37.998Z,66.10
2019-03-26T22:18:07.812Z,67.10
2019-03-26T22:20:37.255Z,68.00
2019-03-26T22:23:08.358Z,68.50
2019-03-26T22:25:39.072Z,67.70
2019-03-26T22:28:08.568Z,66.30
2019-03-26T22:30:38.316Z,67.60
2019-03-26T22:33:07.722Z,68.30
2019-03-26T22:35:37.240Z,68.60
2019-03-26T22:38:06.670Z,67.60
2019-03-26T22:40:36.317Z,67.20
2019-03-26T22:43:05.749Z,67.10
2019-03-26T22:45:35.470Z,67.00
2019-03-26T22:48:05.272Z,66.80
2019-03-26T22:50:34.734Z,67.10
2019-03-26T22:53:04.866Z,67.50
2019-03-26T22:55:34.950Z,68.40
2019-03-26T22:58:04.397Z,69.30
2019-03-26T23:00:35.840Z,69.90
2019-03-26T23:03:05.332Z,70.30
2019-03-26T23:05:36.348Z,70.10
2019-03-26T23:08:06.067Z,70.80
2019-03-26T23:10:35.787Z,70.20
2019-03-26T23:13:05.427Z,69.10
2019-03-26T23:15:34.997Z,68.60
2019-03-26T23:18:04.543Z,68.50
2019-03-26T23:20:34.327Z,68.20
2019-03-26T23:23:04.128Z,68.50
2019-03-26T23:25:33.902Z,69.10
2019-03-26T23:28:03.657Z,68.80
2019-03-26T23:30:33.378Z,69.10
2019-03-26T23:33:03.001Z,69.40
2019-03-26T23:35:32.758Z,69.90
2019-03-26T23:38:02.498Z,70.10
2019-03-26T23:40:32.140Z,71.00
2019-03-26T23:43:01.899Z,70.60
2019-03-26T23:45:31.616Z,70.60
2019-03-26T23:48:01.328Z,70.20
2019-03-26T23:50:31.213Z,70.90
2019-03-26T23:53:00.748Z,71.40
2019-03-26T23:55:30.586Z,71.40
2019-03-26T23:58:00.378Z,71.20
